Wetterdaten: Woche 28.09.09 - 04.10.09 (KW40)
Datum Zeit Temperatur Luftfeuchte Luftdruck Niederschlag Windrichtung Wind
28.09.2009 00:00 10,5 C 95 % 1023,7 hPa 0,0 l/m N 0,0 km/h (0 Bft)
28.09.2009 01:00 10,1 C 96 % 1023,5 hPa 0,0 l/m N 0,1 km/h (0 Bft)
28.09.2009 02:00 9,6 C 96 % 1023,3 hPa 0,0 l/m N 0,0 km/h (0 Bft)
28.09.2009 03:00 9,2 C 96 % 1023,2 hPa 0,0 l/m N 0,5 km/h (0 Bft)
28.09.2009 04:00 8,5 C 96 % 1023,3 hPa 0,0 l/m N 0,0 km/h (0 Bft)
28.09.2009 05:00 8,0 C 96 % 1023,4 hPa 0,0 l/m N 0,1 km/h (0 Bft)
28.09.2009 06:00 8,3 C 97 % 1023,5 hPa 0,0 l/m N 0,3 km/h (0 Bft)
28.09.2009 07:00 7,9 C 96 % 1023,6 hPa 0,0 l/m NO 0,9 km/h (0 Bft)
28.09.2009 08:00 8,9 C 98 % 1024,0 hPa 0,0 l/m N 0,9 km/h (0 Bft)
28.09.2009 09:00 11,3 C 94 % 1024,0 hPa 0,0 l/m O-NO 2,5 km/h (1 Bft)
28.09.2009 10:00 13,2 C 93 % 1024,0 hPa 0,0 l/m S-SW 5,2 km/h (1 Bft)
28.09.2009 11:00 14,8 C 91 % 1023,8 hPa 0,0 l/m S 6,1 km/h (2 Bft)
28.09.2009 12:00 17,3 C 82 % 1023,4 hPa 0,0 l/m S-SW 6,4 km/h (2 Bft)
28.09.2009 13:00 19,3 C 73 % 1022,7 hPa 0,0 l/m SW 5,1 km/h (1 Bft)
28.09.2009 14:00 19,6 C 67 % 1021,8 hPa 0,0 l/m W-SW 3,2 km/h (1 Bft)
28.09.2009 15:00 20,3 C 63 % 1021,3 hPa 0,0 l/m W 5,6 km/h (1 Bft)
28.09.2009 16:00 20,5 C 62 % 1020,5 hPa 0,0 l/m S-SW 6,0 km/h (2 Bft)
28.09.2009 17:00 20,4 C 63 % 1020,2 hPa 0,0 l/m S 4,5 km/h (1 Bft)
28.09.2009 18:00 19,0 C 73 % 1020,0 hPa 0,0 l/m S-SW 2,1 km/h (1 Bft)
28.09.2009 19:00 16,3 C 83 % 1020,5 hPa 0,0 l/m W-NW 2,4 km/h (1 Bft)
28.09.2009 20:00 14,6 C 87 % 1020,7 hPa 0,0 l/m NW 2,8 km/h (1 Bft)
28.09.2009 21:00 13,8 C 88 % 1020,9 hPa 0,0 l/m N 1,3 km/h (1 Bft)
28.09.2009 22:00 12,6 C 92 % 1020,7 hPa 0,0 l/m N 0,1 km/h (0 Bft)
28.09.2009 23:00 11,8 C 94 % 1020,8 hPa 0,0 l/m N 0,5 km/h (0 Bft)
29.09.2009 00:00 11,4 C 95 % 1020,7 hPa 0,0 l/m N 0,3 km/h (0 Bft)
29.09.2009 01:00 10,5 C 95 % 1020,8 hPa 0,0 l/m N 0,5 km/h (0 Bft)
29.09.2009 02:00 9,7 C 96 % 1020,6 hPa 0,0 l/m N 0,1 km/h (0 Bft)
29.09.2009 03:00 8,8 C 97 % 1020,5 hPa 0,0 l/m N 0,0 km/h (0 Bft)
29.09.2009 04:00 8,4 C 97 % 1020,4 hPa 0,0 l/m N 0,0 km/h (0 Bft)
29.09.2009 05:00 8,1 C 97 % 1020,2 hPa 0,0 l/m N 0,4 km/h (0 Bft)
29.09.2009 06:00 8,2 C 98 % 1019,8 hPa 0,0 l/m N 0,7 km/h (0 Bft)
29.09.2009 07:00 7,9 C 98 % 1020,3 hPa 0,0 l/m N 0,9 km/h (0 Bft)
29.09.2009 08:00 8,3 C 99 % 1020,6 hPa 0,2 l/m W 0,7 km/h (0 Bft)
29.09.2009 09:00 9,7 C 99 % 1020,8 hPa 0,0 l/m W 2,4 km/h (1 Bft)
29.09.2009 10:00 13,3 C 93 % 1020,6 hPa 0,0 l/m S-SW 6,4 km/h (2 Bft)
29.09.2009 11:00 17,3 C 72 % 1020,2 hPa 0,0 l/m S-SW 12,5 km/h (3 Bft)
29.09.2009 12:00 18,7 C 70 % 1019,5 hPa 0,0 l/m S-SW 12,4 km/h (3 Bft)
29.09.2009 13:00 20,1 C 56 % 1018,7 hPa 0,0 l/m S-SW 17,4 km/h (3 Bft)
29.09.2009 14:00 20,8 C 51 % 1018,0 hPa 0,0 l/m SW 14,0 km/h (3 Bft)
29.09.2009 15:00 21,0 C 48 % 1017,6 hPa 0,0 l/m W 14,9 km/h (3 Bft)
29.09.2009 16:00 20,8 C 49 % 1017,2 hPa 0,0 l/m W-NW 9,2 km/h (2 Bft)
29.09.2009 17:00 20,2 C 50 % 1017,1 hPa 0,0 l/m N 8,8 km/h (2 Bft)
29.09.2009 18:00 17,5 C 63 % 1017,4 hPa 0,0 l/m N-NW 3,6 km/h (1 Bft)
29.09.2009 19:00 15,1 C 71 % 1017,9 hPa 0,0 l/m N-NW 3,9 km/h (1 Bft)
29.09.2009 20:00 13,5 C 75 % 1018,7 hPa 0,0 l/m N-NW 4,9 km/h (1 Bft)
29.09.2009 21:00 12,7 C 83 % 1019,1 hPa 0,0 l/m N-NO 5,9 km/h (2 Bft)
29.09.2009 22:00 11,3 C 89 % 1019,3 hPa 0,0 l/m N 1,2 km/h (1 Bft)
29.09.2009 23:00 10,4 C 92 % 1019,0 hPa 0,0 l/m N 1,7 km/h (1 Bft)
30.09.2009 00:00 10,0 C 94 % 1019,1 hPa 0,0 l/m N-NO 3,3 km/h (1 Bft)
30.09.2009 01:00 9,6 C 94 % 1018,8 hPa 0,0 l/m N 0,8 km/h (0 Bft)
30.09.2009 02:00 9,0 C 95 % 1018,7 hPa 0,0 l/m N-NW 2,4 km/h (1 Bft)
30.09.2009 03:00 8,3 C 95 % 1018,4 hPa 0,0 l/m N 0,1 km/h (0 Bft)
30.09.2009 04:00 7,7 C 95 % 1018,0 hPa 0,0 l/m N 0,0 km/h (0 Bft)
30.09.2009 05:00 7,2 C 96 % 1018,1 hPa 0,0 l/m N-NW 1,5 km/h (1 Bft)
30.09.2009 06:00 7,3 C 96 % 1018,0 hPa 0,0 l/m N-NW 2,8 km/h (1 Bft)
30.09.2009 07:00 6,5 C 96 % 1018,2 hPa 0,0 l/m N 0,4 km/h (0 Bft)
30.09.2009 08:00 7,6 C 96 % 1018,3 hPa 0,0 l/m N 0,5 km/h (0 Bft)
30.09.2009 09:00 10,3 C 91 % 1018,4 hPa 0,0 l/m N-NO 1,7 km/h (1 Bft)
30.09.2009 10:00 13,9 C 79 % 1018,3 hPa 0,0 l/m O-NO 5,3 km/h (1 Bft)
30.09.2009 11:00 15,9 C 71 % 1017,9 hPa 0,0 l/m NO 9,9 km/h (2 Bft)
30.09.2009 12:00 17,1 C 66 % 1017,3 hPa 0,0 l/m O-NO 11,5 km/h (2 Bft)
30.09.2009 13:00 18,0 C 63 % 1016,7 hPa 0,0 l/m O 9,8 km/h (2 Bft)
30.09.2009 14:00 18,8 C 60 % 1015,7 hPa 0,0 l/m O-NO 10,6 km/h (2 Bft)
30.09.2009 15:00 19,1 C 59 % 1015,2 hPa 0,0 l/m O-SO 9,8 km/h (2 Bft)
30.09.2009 16:00 19,1 C 61 % 1014,8 hPa 0,0 l/m NO 9,9 km/h (2 Bft)
30.09.2009 17:00 18,4 C 65 % 1014,5 hPa 0,0 l/m O-NO 9,4 km/h (2 Bft)
30.09.2009 18:00 17,1 C 70 % 1014,6 hPa 0,0 l/m O-NO 5,9 km/h (2 Bft)
30.09.2009 19:00 14,5 C 82 % 1014,8 hPa 0,0 l/m NO 3,7 km/h (1 Bft)
30.09.2009 20:00 13,2 C 86 % 1014,8 hPa 0,0 l/m NO 3,3 km/h (1 Bft)
30.09.2009 21:00 12,1 C 89 % 1014,9 hPa 0,0 l/m N-NO 2,7 km/h (1 Bft)
30.09.2009 22:00 11,1 C 92 % 1014,8 hPa 0,0 l/m N-NO 4,5 km/h (1 Bft)
30.09.2009 23:00 10,7 C 94 % 1014,6 hPa 0,0 l/m N 4,3 km/h (1 Bft)
01.10.2009 00:00 10,4 C 94 % 1014,3 hPa 0,0 l/m N 4,7 km/h (1 Bft)
01.10.2009 01:00 10,0 C 95 % 1013,8 hPa 0,0 l/m N-NW 3,2 km/h (1 Bft)
01.10.2009 02:00 9,2 C 96 % 1013,5 hPa 0,0 l/m N 0,0 km/h (0 Bft)
01.10.2009 03:00 8,5 C 96 % 1013,1 hPa 0,0 l/m N 0,1 km/h (0 Bft)
01.10.2009 04:00 7,9 C 97 % 1013,1 hPa 0,0 l/m N 0,0 km/h (0 Bft)
01.10.2009 05:00 7,4 C 97 % 1013,0 hPa 0,0 l/m N 0,1 km/h (0 Bft)
01.10.2009 06:00 7,3 C 98 % 1012,9 hPa 0,0 l/m N 0,3 km/h (0 Bft)
01.10.2009 07:00 8,0 C 98 % 1013,0 hPa 0,0 l/m NW 1,5 km/h (1 Bft)
01.10.2009 08:00 9,1 C 97 % 1013,8 hPa 0,0 l/m N 2,0 km/h (1 Bft)
01.10.2009 09:00 10,4 C 96 % 1014,2 hPa 0,0 l/m S-SW 4,3 km/h (1 Bft)
01.10.2009 10:00 12,3 C 94 % 1014,1 hPa 0,0 l/m S-SW 5,1 km/h (1 Bft)
01.10.2009 11:00 14,8 C 84 % 1014,0 hPa 0,0 l/m W-SW 10,9 km/h (2 Bft)
01.10.2009 12:00 17,1 C 68 % 1013,8 hPa 0,0 l/m W-NW 16,5 km/h (3 Bft)
01.10.2009 13:00 17,9 C 60 % 1013,5 hPa 0,0 l/m W-SW 18,8 km/h (3 Bft)
01.10.2009 14:00 18,5 C 55 % 1012,8 hPa 0,0 l/m W-NW 15,4 km/h (3 Bft)
01.10.2009 15:00 18,7 C 53 % 1012,5 hPa 0,0 l/m W-NW 16,6 km/h (3 Bft)
01.10.2009 16:00 18,0 C 52 % 1012,6 hPa 0,0 l/m W 16,6 km/h (3 Bft)
01.10.2009 17:00 17,1 C 57 % 1013,0 hPa 0,0 l/m N-NW 9,8 km/h (2 Bft)
01.10.2009 18:00 15,6 C 67 % 1013,4 hPa 0,0 l/m N-NW 4,1 km/h (1 Bft)
01.10.2009 19:00 13,7 C 73 % 1014,2 hPa 0,0 l/m N 5,4 km/h (1 Bft)
01.10.2009 20:00 12,9 C 76 % 1014,9 hPa 0,0 l/m N 3,2 km/h (1 Bft)
01.10.2009 21:00 12,4 C 80 % 1015,3 hPa 0,0 l/m NW 3,5 km/h (1 Bft)
01.10.2009 22:00 12,9 C 77 % 1015,6 hPa 0,0 l/m W-NW 6,3 km/h (2 Bft)
01.10.2009 23:00 12,2 C 81 % 1015,6 hPa 0,0 l/m N 0,8 km/h (0 Bft)
02.10.2009 00:00 11,3 C 87 % 1015,5 hPa 0,0 l/m N 1,9 km/h (1 Bft)
02.10.2009 01:00 10,7 C 89 % 1015,3 hPa 0,0 l/m N 0,4 km/h (0 Bft)
02.10.2009 02:00 10,7 C 89 % 1015,4 hPa 0,0 l/m N 0,9 km/h (0 Bft)
02.10.2009 03:00 10,8 C 89 % 1015,3 hPa 0,0 l/m N 0,1 km/h (0 Bft)
02.10.2009 04:00 10,6 C 89 % 1015,1 hPa 0,0 l/m NW 2,0 km/h (1 Bft)
02.10.2009 05:00 10,8 C 86 % 1015,1 hPa 0,0 l/m W-NW 3,6 km/h (1 Bft)
02.10.2009 06:00 10,8 C 87 % 1015,0 hPa 0,0 l/m N 1,5 km/h (1 Bft)
02.10.2009 07:00 10,5 C 89 % 1015,2 hPa 0,0 l/m W-NW 2,4 km/h (1 Bft)
02.10.2009 08:00 11,0 C 88 % 1015,3 hPa 0,0 l/m W-NW 3,2 km/h (1 Bft)
02.10.2009 09:00 12,2 C 83 % 1015,5 hPa 0,0 l/m SW 7,8 km/h (2 Bft)
02.10.2009 10:00 13,6 C 75 % 1015,7 hPa 0,0 l/m W-NW 11,1 km/h (2 Bft)
02.10.2009 11:00 14,3 C 70 % 1015,7 hPa 0,0 l/m N-NW 15,2 km/h (3 Bft)
02.10.2009 12:00 14,9 C 66 % 1015,5 hPa 0,0 l/m W-NW 14,8 km/h (3 Bft)
02.10.2009 13:00 15,0 C 64 % 1015,3 hPa 0,0 l/m W-NW 12,9 km/h (3 Bft)
02.10.2009 14:00 15,6 C 60 % 1014,8 hPa 0,0 l/m W-NW 13,3 km/h (3 Bft)
02.10.2009 15:00 15,8 C 56 % 1014,5 hPa 0,0 l/m W-NW 15,7 km/h (3 Bft)
02.10.2009 16:00 15,5 C 55 % 1014,4 hPa 0,0 l/m NW 13,3 km/h (3 Bft)
02.10.2009 17:00 14,8 C 59 % 1014,6 hPa 0,0 l/m N-NW 13,4 km/h (3 Bft)
02.10.2009 18:00 13,7 C 63 % 1015,2 hPa 0,0 l/m N-NO 13,0 km/h (3 Bft)
02.10.2009 19:00 11,8 C 68 % 1016,0 hPa 0,0 l/m N-NW 6,7 km/h (2 Bft)
02.10.2009 20:00 10,7 C 75 % 1016,8 hPa 0,0 l/m N-NW 3,1 km/h (1 Bft)
02.10.2009 21:00 10,3 C 81 % 1017,6 hPa 0,0 l/m N 0,7 km/h (0 Bft)
02.10.2009 22:00 9,7 C 82 % 1018,1 hPa 0,0 l/m N 0,5 km/h (0 Bft)
02.10.2009 23:00 9,3 C 84 % 1018,0 hPa 0,0 l/m N 0,7 km/h (0 Bft)
03.10.2009 00:00 9,0 C 86 % 1018,1 hPa 0,0 l/m N 0,8 km/h (0 Bft)
03.10.2009 01:00 8,4 C 86 % 1018,3 hPa 0,0 l/m N-NW 1,5 km/h (1 Bft)
03.10.2009 02:00 7,9 C 88 % 1018,4 hPa 0,0 l/m N 0,3 km/h (0 Bft)
03.10.2009 03:00 7,7 C 88 % 1017,9 hPa 0,0 l/m N 0,1 km/h (0 Bft)
03.10.2009 04:00 6,3 C 91 % 1017,5 hPa 0,0 l/m N 0,0 km/h (0 Bft)
03.10.2009 05:00 5,4 C 93 % 1017,2 hPa 0,0 l/m N 0,5 km/h (0 Bft)
03.10.2009 06:00 4,7 C 94 % 1016,8 hPa 0,0 l/m N 0,1 km/h (0 Bft)
03.10.2009 07:00 4,2 C 95 % 1016,9 hPa 0,0 l/m N 0,5 km/h (0 Bft)
03.10.2009 08:00 5,2 C 94 % 1017,1 hPa 0,0 l/m N 1,2 km/h (1 Bft)
03.10.2009 09:00 7,9 C 88 % 1017,2 hPa 0,0 l/m O-NO 1,5 km/h (1 Bft)
03.10.2009 10:00 10,9 C 77 % 1017,1 hPa 0,0 l/m S-SO 5,5 km/h (1 Bft)
03.10.2009 11:00 13,3 C 65 % 1016,7 hPa 0,0 l/m W-SW 11,1 km/h (2 Bft)
03.10.2009 12:00 15,0 C 62 % 1015,9 hPa 0,0 l/m SW 14,4 km/h (3 Bft)
03.10.2009 13:00 16,4 C 56 % 1015,0 hPa 0,0 l/m W-SW 19,8 km/h (4 Bft)
03.10.2009 14:00 17,2 C 53 % 1014,4 hPa 0,0 l/m W-SW 19,6 km/h (3 Bft)
03.10.2009 15:00 17,5 C 50 % 1013,9 hPa 0,0 l/m W-SW 18,8 km/h (3 Bft)
03.10.2009 16:00 17,4 C 50 % 1013,3 hPa 0,0 l/m W 17,6 km/h (3 Bft)
03.10.2009 17:00 16,4 C 52 % 1012,8 hPa 0,0 l/m W-SW 19,0 km/h (3 Bft)
03.10.2009 18:00 15,0 C 58 % 1012,9 hPa 0,0 l/m W-SW 15,2 km/h (3 Bft)
03.10.2009 19:00 13,7 C 64 % 1013,0 hPa 0,0 l/m W-SW 13,3 km/h (3 Bft)
03.10.2009 20:00 12,9 C 68 % 1013,1 hPa 0,0 l/m W-SW 16,1 km/h (3 Bft)
03.10.2009 21:00 12,2 C 72 % 1013,1 hPa 0,0 l/m SW 15,8 km/h (3 Bft)
03.10.2009 22:00 11,4 C 77 % 1013,3 hPa 0,0 l/m SW 13,0 km/h (3 Bft)
03.10.2009 23:00 10,9 C 78 % 1013,4 hPa 0,0 l/m SW 12,4 km/h (3 Bft)
04.10.2009 00:00 9,9 C 82 % 1013,5 hPa 0,0 l/m W-SW 8,9 km/h (2 Bft)
04.10.2009 01:00 9,1 C 85 % 1013,6 hPa 0,0 l/m W-SW 10,6 km/h (2 Bft)
04.10.2009 02:00 8,8 C 86 % 1013,5 hPa 0,0 l/m SW 15,8 km/h (3 Bft)
04.10.2009 03:00 8,1 C 88 % 1013,5 hPa 0,0 l/m SW 12,4 km/h (3 Bft)
04.10.2009 04:00 7,3 C 91 % 1014,0 hPa 0,0 l/m W-SW 3,6 km/h (1 Bft)
04.10.2009 05:00 7,3 C 92 % 1013,8 hPa 0,0 l/m SW 10,5 km/h (2 Bft)
04.10.2009 06:00 8,4 C 87 % 1013,6 hPa 0,0 l/m SW 15,7 km/h (3 Bft)
04.10.2009 07:00 8,8 C 86 % 1013,6 hPa 0,0 l/m SW 17,0 km/h (3 Bft)
04.10.2009 08:00 9,2 C 87 % 1013,9 hPa 0,0 l/m SW 16,9 km/h (3 Bft)
04.10.2009 09:00 11,6 C 80 % 1014,4 hPa 0,0 l/m SW 21,8 km/h (4 Bft)
04.10.2009 10:00 13,9 C 70 % 1014,8 hPa 0,0 l/m W-SW 28,5 km/h (4 Bft)
04.10.2009 11:00 15,3 C 62 % 1014,9 hPa 0,0 l/m W-SW 24,7 km/h (4 Bft)
04.10.2009 12:00 16,4 C 54 % 1014,7 hPa 0,0 l/m W 28,8 km/h (5 Bft)
04.10.2009 13:00 17,4 C 51 % 1014,0 hPa 0,0 l/m W 26,4 km/h (4 Bft)
04.10.2009 14:00 17,7 C 50 % 1013,4 hPa 0,0 l/m W 31,1 km/h (5 Bft)
04.10.2009 15:00 17,5 C 51 % 1013,3 hPa 0,0 l/m W-SW 25,6 km/h (4 Bft)
04.10.2009 16:00 16,7 C 54 % 1013,1 hPa 0,0 l/m W-SW 18,8 km/h (3 Bft)
04.10.2009 17:00 16,2 C 55 % 1012,9 hPa 0,0 l/m W-SW 18,8 km/h (3 Bft)
04.10.2009 18:00 14,6 C 62 % 1013,6 hPa 0,0 l/m W-SW 8,7 km/h (2 Bft)
04.10.2009 19:00 12,5 C 71 % 1014,4 hPa 0,0 l/m W 6,6 km/h (2 Bft)
04.10.2009 20:00 10,3 C 79 % 1015,4 hPa 0,0 l/m N-NW 2,8 km/h (1 Bft)
04.10.2009 21:00 9,1 C 85 % 1016,2 hPa 0,0 l/m NW 3,6 km/h (1 Bft)
04.10.2009 22:00 9,7 C 84 % 1016,8 hPa 0,0 l/m W-NW 1,6 km/h (1 Bft)
04.10.2009 23:00 10,9 C 77 % 1017,2 hPa 0,0 l/m W-NW 8,9 km/h (2 Bft)
Min-Datum _ 03.10.09 29.09.09 01.10.09 - - 28.09.09
_ Min-Zeit 07:05 15:15 15:15 - - 00:00
Minimum _ 4,2 C 46 % 1012,4 hPa - - 0,0 km/h (0 Bft)
Max-Datum _ 29.09.09 28.09.09 28.09.09 29.09.09 - 04.10.09
_ Max-Zeit 15:15 08:55 08:35 08:25 - 10:05
Maximum _ 21,5 C 100 % 1024,1 hPa 0,2 l/m - 40,2 km/h
W-SW (6 Bft)
Durchschnitt _ 12,5 C 79 % 1016,8 hPa #0,2 l/m W-SW 7,1 km/h (2 Bft)